Time;durP1;ratioP1;P1;durP2;ratioP2;P2;SDS_P1;SDS_P2;PMS_P1;PMS_P2;Temp;Humidity;BMP_temperature;BMP_pressure;BME280_temperature;BME280_humidity;BME280_pressure;Samples;Min_cycle;Max_cycle;Signal;HPM_P1;HPM_P2
2022/07/29 00:00:21;;;;;;;6.00;2.65;;;;;;;19.33;52.53;101598.28;4989647;28;20349;-64
2022/07/29 00:02:46;;;;;;;4.18;2.25;;;;;;;19.33;52.52;101592.13;4990408;28;20030;-64
2022/07/29 00:05:13;;;;;;;4.15;2.30;;;;;;;19.27;53.16;101593.88;4992354;28;20378;-64
2022/07/29 00:07:39;;;;;;;7.68;2.60;;;;;;;19.27;53.08;101593.88;4989544;28;20062;-64
2022/07/29 00:10:04;;;;;;;4.93;2.28;;;;;;;19.26;53.45;101591.25;4989857;28;20054;-64
2022/07/29 00:12:30;;;;;;;5.45;2.50;;;;;;;19.23;53.71;101589.50;4991260;28;20125;-64
2022/07/29 00:14:56;;;;;;;6.18;2.97;;;;;;;19.24;53.24;101593.00;4989668;28;20132;-64
2022/07/29 00:17:23;;;;;;;5.72;2.67;;;;;;;19.21;53.71;101579.81;4990240;28;20061;-64
2022/07/29 00:19:48;;;;;;;5.10;2.75;;;;;;;19.20;53.37;101581.56;4991025;28;20112;-64
2022/07/29 00:22:13;;;;;;;5.88;2.80;;;;;;;19.19;53.87;101579.81;4989820;28;21133;-64
2022/07/29 00:24:39;;;;;;;4.45;2.50;;;;;;;19.17;54.36;101584.19;4989606;28;20502;-64
2022/07/29 00:27:04;;;;;;;6.50;2.45;;;;;;;19.18;53.79;101583.31;4990990;28;20548;-64
2022/07/29 00:29:30;;;;;;;6.53;2.88;;;;;;;19.16;54.13;101581.56;4990529;28;20030;-64
2022/07/29 00:31:55;;;;;;;4.90;2.50;;;;;;;19.17;54.21;101588.63;4991162;28;20527;-64
2022/07/29 00:37:04;;;;;;;3.97;2.60;;;;;;;19.11;54.86;101587.72;4968133;28;20509;-64
2022/07/29 00:39:29;;;;;;;4.95;2.50;;;;;;;19.12;54.24;101599.19;4990250;28;20042;-64
2022/07/29 00:41:55;;;;;;;6.88;3.03;;;;;;;19.11;54.42;101600.06;4989594;28;20026;-64
2022/07/29 00:44:20;;;;;;;5.28;2.63;;;;;;;19.13;54.46;101611.50;4990141;28;20109;-64
2022/07/29 00:46:45;;;;;;;4.97;2.60;;;;;;;19.12;54.39;101612.41;4990352;28;20034;-64
2022/07/29 00:49:11;;;;;;;5.75;2.60;;;;;;;19.07;54.40;101622.06;4990536;28;20116;-64
2022/07/29 00:51:37;;;;;;;5.22;2.60;;;;;;;19.05;54.18;101623.84;4988673;28;20034;-64
2022/07/29 00:54:03;;;;;;;5.63;2.70;;;;;;;19.04;54.50;101632.63;4989371;28;20521;-64
2022/07/29 00:56:31;;;;;;;6.90;2.90;;;;;;;18.96;55.36;101637.00;4988430;28;20080;-64
2022/07/29 00:58:57;;;;;;;4.30;2.45;;;;;;;18.89;55.66;101647.56;4991086;28;20030;-64
2022/07/29 01:01:23;;;;;;;4.95;2.80;;;;;;;18.79;55.65;101642.25;4988244;28;20034;-64
2022/07/29 01:03:48;;;;;;;5.97;2.55;;;;;;;18.69;56.84;101618.44;4989576;28;20041;-64
2022/07/29 01:06:16;;;;;;;8.32;2.60;;;;;;;18.69;56.91;101614.94;4990143;28;20133;-64
2022/07/29 01:08:42;;;;;;;5.75;2.70;;;;;;;18.73;56.49;101616.72;4988322;28;20037;-64
2022/07/29 01:11:08;;;;;;;5.07;2.70;;;;;;;18.73;56.49;101603.50;4989988;28;20519;-64
2022/07/29 01:13:34;;;;;;;5.53;2.88;;;;;;;18.72;57.68;101583.25;4990128;28;20022;-64
2022/07/29 01:16:06;;;;;;;5.40;2.70;;;;;;;18.73;57.77;101569.19;4989011;28;20029;-64
2022/07/29 01:18:38;;;;;;;7.25;3.00;;;;;;;18.73;57.70;101563.91;4989020;28;20053;-64
2022/07/29 01:21:41;;;;;;;5.65;2.70;;;;;;;18.75;57.59;101547.16;4989103;28;20454;-64
2022/07/29 01:24:12;;;;;;;6.13;3.30;;;;;;;18.76;58.64;101545.44;4986345;28;20041;-64
2022/07/29 01:26:45;;;;;;;5.55;3.15;;;;;;;18.74;58.81;101548.06;4990301;28;20037;-64
2022/07/29 01:29:31;;;;;;;5.25;3.55;;;;;;;18.74;58.28;101544.53;4990551;28;20065;-64
2022/07/29 01:32:13;;;;;;;6.80;3.63;;;;;;;18.72;58.57;101535.75;4985360;28;20025;-64
2022/07/29 01:35:15;;;;;;;5.55;3.72;;;;;;;18.72;58.75;101528.69;4990463;28;20046;-64
2022/07/29 01:37:51;;;;;;;8.20;3.63;;;;;;;18.69;59.77;101514.63;4985291;28;20117;-64
2022/07/29 01:40:40;;;;;;;6.75;3.70;;;;;;;18.66;59.41;101507.56;4988857;28;20050;-64
2022/07/29 01:43:16;;;;;;;6.90;3.53;;;;;;;18.67;60.01;101511.09;4982186;28;20074;-64
2022/07/29 01:46:05;;;;;;;6.50;3.50;;;;;;;18.67;59.82;101505.81;4989090;28;20048;-64
2022/07/29 01:48:34;;;;;;;;;;;;;;;18.71;58.69;101495.28;4989134;28;20030;-64
2022/07/29 01:51:04;;;;;;;;;;;;;;;18.70;58.37;101490.00;4989740;28;20288;-64
2022/07/29 01:53:35;;;;;;;5.75;3.35;;;;;;;18.56;59.96;101497.91;4989119;28;19970;-64
2022/07/29 01:56:02;;;;;;;6.60;3.70;;;;;;;18.51;60.78;101504.91;4986551;28;20118;-64
2022/07/29 01:58:31;;;;;;;6.35;3.50;;;;;;;18.43;60.57;101502.28;4988162;28;20081;-64
2022/07/29 02:00:58;;;;;;;8.25;3.50;;;;;;;18.43;60.04;101507.56;4987945;28;20027;-64
2022/07/29 02:03:25;;;;;;;8.35;4.22;;;;;;;18.38;60.03;101519.88;4990767;28;20492;-64
2022/07/29 02:05:52;;;;;;;8.00;3.88;;;;;;;18.34;60.23;101523.38;4989650;28;20466;-64
2022/07/29 02:08:19;;;;;;;6.28;4.10;;;;;;;18.30;60.41;101514.56;4990151;28;20027;-64
2022/07/29 02:10:47;;;;;;;6.72;3.60;;;;;;;18.31;60.39;101505.78;4987371;28;20084;-64
2022/07/29 02:13:13;;;;;;;6.28;3.58;;;;;;;18.30;60.93;101492.59;4987648;28;20113;-64
2022/07/29 02:15:42;;;;;;;7.70;4.07;;;;;;;18.30;60.88;101497.84;4985977;28;20022;-64
2022/07/29 02:18:11;;;;;;;9.27;3.90;;;;;;;18.27;61.64;101495.22;4986724;28;20564;-64
2022/07/29 02:20:38;;;;;;;6.97;4.35;;;;;;;18.22;61.00;101501.34;4971707;28;20026;-64
2022/07/29 02:23:04;;;;;;;9.73;4.32;;;;;;;18.22;60.30;101489.94;4989754;28;20478;-64
2022/07/29 02:25:31;;;;;;;5.93;4.03;;;;;;;18.21;60.59;101491.66;4987788;28;20029;-64
2022/07/29 02:27:59;;;;;;;6.43;4.28;;;;;;;18.15;61.49;101504.84;4989203;28;20117;-64
2022/07/29 02:30:25;;;;;;;7.03;4.20;;;;;;;18.16;61.55;101503.09;4988603;28;20034;-64
2022/07/29 02:32:53;;;;;;;7.25;4.10;;;;;;;18.17;61.77;101502.22;4988958;28;20141;-64
2022/07/29 02:35:21;;;;;;;7.03;4.20;;;;;;;18.16;61.55;101503.09;4986698;28;20049;-64
2022/07/29 02:38:50;;;;;;;8.13;4.10;;;;;;;18.13;61.69;101500.44;4991951;28;20767;-60
2022/07/29 02:40:37;;;;;;;;;;;;;;;18.22;59.61;101504.00;4992708;28;20061;-60
2022/07/29 02:43:05;;;;;;;8.90;4.22;;;;;;;18.16;60.78;101496.06;4992417;28;19964;-59
2022/07/29 02:45:32;;;;;;;;;;;;;;;18.22;59.49;101489.94;4993262;28;20063;-59
2022/07/29 02:48:04;;;;;;;9.63;4.40;;;;;;;18.13;61.02;101493.41;4990699;28;20048;-60
2022/07/29 02:50:34;;;;;;;8.77;4.25;;;;;;;18.11;61.41;101489.88;4992986;28;20110;-59
2022/07/29 02:53:08;;;;;;;7.43;4.90;;;;;;;18.06;61.08;101489.88;4993664;28;20156;-60
2022/07/29 02:55:44;;;;;;;6.20;4.30;;;;;;;18.04;60.86;101494.25;4993869;28;20023;-60
2022/07/29 02:58:14;;;;;;;9.02;4.50;;;;;;;18.02;61.79;101490.75;4991497;28;20405;-60
2022/07/29 03:00:40;;;;;;;8.13;4.55;;;;;;;18.00;61.87;101507.44;4992184;28;20041;-59
2022/07/29 03:03:11;;;;;;;9.82;4.70;;;;;;;17.97;61.74;101510.06;4993076;28;20041;-60
2022/07/29 03:05:37;;;;;;;7.63;4.53;;;;;;;17.95;61.96;101509.19;4992249;28;20128;-60
2022/07/29 03:08:05;;;;;;;7.53;4.30;;;;;;;17.93;61.91;101496.00;4992491;28;20486;-64
2022/07/29 03:10:31;;;;;;;7.97;4.53;;;;;;;17.93;61.97;101509.19;4993715;28;20485;-64
2022/07/29 03:12:57;;;;;;;9.18;4.30;;;;;;;17.92;62.29;101502.16;4991285;28;20026;-64
2022/07/29 03:15:24;;;;;;;9.20;5.03;;;;;;;17.89;63.28;101505.59;4992430;28;20015;-64
2022/07/29 03:17:50;;;;;;;8.50;4.80;;;;;;;17.87;62.91;101502.09;4974685;28;20182;-64
2022/07/29 03:20:16;;;;;;;7.50;4.80;;;;;;;17.90;62.14;101502.13;4992861;28;20492;-64
2022/07/29 03:22:43;;;;;;;8.82;5.07;;;;;;;17.87;63.29;101503.84;4992031;28;20041;-64
2022/07/29 03:25:12;;;;;;;8.25;4.97;;;;;;;17.85;62.91;101503.81;4992537;28;20479;-64
2022/07/29 03:27:37;;;;;;;7.65;4.85;;;;;;;17.84;62.96;101507.38;4992979;28;20037;-64
2022/07/29 03:30:04;;;;;;;8.75;4.63;;;;;;;17.83;63.65;101505.59;4990688;28;20026;-64
2022/07/29 03:32:29;;;;;;;9.55;4.95;;;;;;;17.82;63.04;101498.53;4992692;28;20100;-64
2022/07/29 03:34:54;;;;;;;8.98;4.68;;;;;;;17.79;64.13;101509.09;4991599;28;20510;-64
2022/07/29 03:37:20;;;;;;;8.13;4.45;;;;;;;17.78;63.62;101509.94;4992917;28;20018;-64
2022/07/29 03:39:47;;;;;;;7.70;4.97;;;;;;;17.74;63.59;101505.53;4991115;28;20112;-64
2022/07/29 03:42:16;;;;;;;8.60;4.40;;;;;;;17.71;63.57;101513.44;4991679;28;20037;-64
2022/07/29 03:44:43;;;;;;;8.73;4.50;;;;;;;17.70;62.78;101509.94;4990965;28;20077;-64
2022/07/29 03:47:10;;;;;;;9.20;4.50;;;;;;;17.69;63.45;101512.56;4990882;28;20022;-64
2022/07/29 03:49:37;;;;;;;8.43;4.70;;;;;;;17.66;62.41;101509.91;4992387;28;20043;-64
2022/07/29 03:52:03;;;;;;;8.23;4.95;;;;;;;17.67;62.62;101516.91;4990305;28;20486;-64
2022/07/29 03:54:29;;;;;;;6.80;4.40;;;;;;;17.65;62.87;101508.13;4989770;28;20037;-64
2022/07/29 03:56:57;;;;;;;8.13;4.63;;;;;;;17.62;63.06;101501.09;4991489;28;20027;-64
2022/07/29 03:59:23;;;;;;;10.57;5.07;;;;;;;17.62;62.78;101500.22;4991892;28;20621;-64
2022/07/29 04:01:48;;;;;;;8.60;4.95;;;;;;;17.58;63.43;101493.16;4989904;28;20042;-64
2022/07/29 04:04:14;;;;;;;8.98;4.97;;;;;;;17.55;63.37;101494.03;4991272;28;20177;-64
2022/07/29 04:06:42;;;;;;;8.93;4.88;;;;;;;17.51;63.32;101498.41;4991349;28;20492;-64
2022/07/29 04:09:07;;;;;;;10.43;5.03;;;;;;;17.48;63.55;101501.03;4991271;28;20506;-64
2022/07/29 04:11:32;;;;;;;8.80;4.97;;;;;;;17.50;63.84;101503.69;4990515;28;20060;-64
2022/07/29 04:13:58;;;;;;;9.02;4.95;;;;;;;17.46;63.95;101497.50;4990551;28;20042;-64
2022/07/29 04:16:23;;;;;;;9.48;4.75;;;;;;;17.43;63.95;101493.97;4991675;28;20093;-64
2022/07/29 04:18:48;;;;;;;7.82;4.70;;;;;;;17.42;63.64;101493.06;4988312;28;20053;-64
2022/07/29 04:21:14;;;;;;;8.48;4.88;;;;;;;17.40;63.70;101492.19;4989455;28;20041;-64
2022/07/29 04:23:40;;;;;;;7.95;4.63;;;;;;;17.39;63.92;101495.69;4992495;28;20030;-64
2022/07/29 04:26:09;;;;;;;11.25;5.10;;;;;;;17.41;63.16;101496.59;4991471;28;20038;-64
2022/07/29 04:28:34;;;;;;;8.38;4.85;;;;;;;17.37;63.96;101500.97;4990613;28;20030;-64
2022/07/29 04:31:00;;;;;;;7.80;4.68;;;;;;;17.35;63.77;101499.19;4991698;28;20041;-64
2022/07/29 04:33:25;;;;;;;8.73;4.70;;;;;;;17.34;64.37;101486.91;4989991;28;20029;-64
2022/07/29 04:35:51;;;;;;;7.53;4.88;;;;;;;17.34;64.20;101500.06;4991423;28;20022;-64
2022/07/29 04:38:16;;;;;;;8.73;5.00;;;;;;;17.33;64.30;101503.56;4991136;28;20026;-64
2022/07/29 04:40:41;;;;;;;8.88;5.30;;;;;;;17.34;64.90;101511.47;4969883;28;20061;-64
2022/07/29 04:43:07;;;;;;;7.80;5.03;;;;;;;17.33;64.46;101506.19;4971079;28;20023;-64
2022/07/29 04:45:32;;;;;;;9.15;5.07;;;;;;;17.35;64.32;101497.44;4969535;28;20372;-64
2022/07/29 04:47:57;;;;;;;10.38;5.68;;;;;;;17.32;65.12;101501.78;4971744;28;20121;-64
2022/07/29 04:50:22;;;;;;;10.95;6.10;;;;;;;17.31;65.09;101497.41;4969082;28;20057;-64
2022/07/29 04:52:48;;;;;;;9.80;5.72;;;;;;;17.26;65.24;101507.03;4971195;28;20027;-64
2022/07/29 04:55:13;;;;;;;8.45;5.43;;;;;;;17.23;64.84;101514.91;4970710;28;20434;-64
2022/07/29 04:57:39;;;;;;;10.43;5.78;;;;;;;17.20;65.73;101529.81;4971099;28;20105;-64
2022/07/29 05:00:06;;;;;;;9.52;6.03;;;;;;;17.20;64.77;101540.34;4970162;28;20442;-64
2022/07/29 05:02:31;;;;;;;9.75;5.93;;;;;;;17.23;65.15;101539.50;4970939;28;20254;-64
2022/07/29 05:04:56;;;;;;;12.38;6.18;;;;;;;17.21;65.25;101534.22;4971104;28;20426;-64
2022/07/29 05:07:22;;;;;;;9.27;5.70;;;;;;;17.20;65.72;101539.47;4970805;28;20034;-64
2022/07/29 05:09:47;;;;;;;8.90;6.10;;;;;;;17.20;65.98;101557.91;4969772;28;20027;-64
2022/07/29 05:12:12;;;;;;;12.23;6.03;;;;;;;17.16;65.37;101567.56;4970873;28;20046;-64
2022/07/29 05:14:38;;;;;;;8.65;6.20;;;;;;;17.18;65.70;101562.28;4971484;28;20042;-64
2022/07/29 05:17:03;;;;;;;12.32;6.53;;;;;;;17.19;65.54;101567.56;4969645;28;20501;-64
2022/07/29 05:19:28;;;;;;;12.10;6.57;;;;;;;17.20;65.54;101555.28;4970127;28;20048;-64
2022/07/29 05:21:54;;;;;;;10.27;6.28;;;;;;;17.21;65.94;101552.66;4971709;28;20035;-64
2022/07/29 05:24:19;;;;;;;12.05;7.40;;;;;;;17.20;66.46;101553.50;4969575;28;20034;-64
2022/07/29 05:26:44;;;;;;;12.90;6.90;;;;;;;17.19;65.87;101559.66;4958558;28;20409;-64
2022/07/29 05:29:11;;;;;;;12.35;7.40;;;;;;;17.19;66.90;101557.03;4971779;28;20034;-64
2022/07/29 05:31:36;;;;;;;14.68;7.53;;;;;;;17.20;66.17;101563.19;4970329;28;20039;-64
2022/07/29 05:34:01;;;;;;;15.10;8.32;;;;;;;17.19;66.63;101557.03;4969468;28;20038;-64
2022/07/29 05:36:26;;;;;;;12.00;7.82;;;;;;;17.15;67.64;101562.28;4968483;28;20142;-64
2022/07/29 05:38:52;;;;;;;12.68;8.05;;;;;;;17.19;67.17;101553.50;4971120;28;20041;-64
2022/07/29 05:41:18;;;;;;;12.20;7.50;;;;;;;17.18;66.91;101552.63;4988691;28;20057;-64
2022/07/29 05:43:43;;;;;;;12.45;8.23;;;;;;;17.15;67.36;101552.63;4990822;28;20497;-64
2022/07/29 05:46:09;;;;;;;14.05;8.80;;;;;;;17.15;66.60;101565.78;4988443;28;20034;-64
2022/07/29 05:48:34;;;;;;;13.48;8.20;;;;;;;17.14;66.39;101556.09;4990908;28;20042;-64
2022/07/29 05:50:59;;;;;;;15.45;8.60;;;;;;;17.14;66.75;101560.50;4989717;28;20529;-64
2022/07/29 05:53:25;;;;;;;13.10;8.73;;;;;;;17.17;67.26;101555.25;4989928;28;20044;-64
2022/07/29 05:55:51;;;;;;;17.23;9.68;;;;;;;17.15;67.24;101552.63;4988903;28;20018;-64
2022/07/29 05:58:16;;;;;;;15.65;9.90;;;;;;;17.17;67.66;101556.13;4988947;28;20398;-64
2022/07/29 06:00:42;;;;;;;18.17;9.43;;;;;;;17.19;66.76;101553.50;4987500;28;20490;-64
2022/07/29 06:03:07;;;;;;;15.00;9.70;;;;;;;17.18;66.57;101550.00;4986162;28;20033;-64
2022/07/29 06:05:32;;;;;;;14.63;9.80;;;;;;;17.17;67.10;101550.84;4989109;28;20174;-65
2022/07/29 06:07:58;;;;;;;16.35;10.38;;;;;;;17.17;67.15;101550.84;4989810;28;20030;-64
2022/07/29 06:10:24;;;;;;;15.02;10.35;;;;;;;17.19;68.13;101549.13;4988241;28;20092;-64
2022/07/29 06:12:49;;;;;;;17.67;10.00;;;;;;;17.20;67.31;101548.25;4989340;28;20022;-64
2022/07/29 06:15:15;;;;;;;19.98;9.98;;;;;;;17.23;67.92;101555.28;4971542;28;20379;-64
2022/07/29 06:17:40;;;;;;;18.90;10.68;;;;;;;17.25;67.51;101555.31;4987310;28;20462;-64
2022/07/29 06:20:06;;;;;;;17.67;10.18;;;;;;;17.25;67.46;101558.84;4988987;28;20026;-64
2022/07/29 06:22:31;;;;;;;14.48;9.80;;;;;;;17.25;66.81;101561.47;4987685;28;20500;-64
2022/07/29 06:24:57;;;;;;;19.08;10.93;;;;;;;17.25;67.39;101563.19;4989539;28;20038;-64
2022/07/29 06:27:22;;;;;;;18.30;10.60;;;;;;;17.27;67.65;101556.22;4988998;28;20031;-64
2022/07/29 06:29:47;;;;;;;17.83;10.77;;;;;;;17.26;67.83;101562.34;4989067;28;20577;-64
2022/07/29 06:32:13;;;;;;;20.05;10.57;;;;;;;17.28;67.66;101552.69;4988503;28;20553;-64
2022/07/29 06:34:38;;;;;;;19.67;10.88;;;;;;;17.31;67.89;101556.25;4990030;28;20037;-64
2022/07/29 06:37:07;;;;;;;17.10;10.88;;;;;;;17.32;67.27;101554.47;4988917;28;20510;-64
2022/07/29 06:39:35;;;;;;;17.95;11.05;;;;;;;17.35;67.74;101559.75;4982691;28;20321;-64
2022/07/29 06:42:00;;;;;;;20.63;11.27;;;;;;;17.37;68.42;101555.41;4988321;28;20030;-64
2022/07/29 06:44:26;;;;;;;20.55;11.40;;;;;;;17.38;67.38;101559.81;4988377;28;20489;-64
2022/07/29 06:46:51;;;;;;;18.85;10.88;;;;;;;17.39;67.79;101566.81;4987128;28;20113;-64
2022/07/29 06:49:16;;;;;;;17.70;11.30;;;;;;;17.42;67.76;101571.25;4988337;28;20238;-64
2022/07/29 06:51:42;;;;;;;22.63;11.88;;;;;;;17.41;67.33;101562.47;4987977;28;20026;-64
2022/07/29 06:54:07;;;;;;;21.20;12.07;;;;;;;17.45;67.28;101560.72;4988584;28;20397;-64
2022/07/29 06:56:36;;;;;;;19.45;11.70;;;;;;;17.45;67.49;101565.97;4982444;28;20121;-64
2022/07/29 06:59:02;;;;;;;;;;;;;;;17.50;66.23;101570.41;4987479;28;20030;-64
2022/07/29 07:01:27;;;;;;;19.05;11.80;;;;;;;17.48;67.11;101571.28;4988927;28;20399;-64
2022/07/29 07:03:52;;;;;;;19.55;11.75;;;;;;;17.49;67.31;101571.28;4986007;28;20097;-64
2022/07/29 07:06:18;;;;;;;21.48;11.45;;;;;;;17.49;67.25;101571.28;4970916;28;20516;-64
2022/07/29 07:08:43;;;;;;;19.20;11.82;;;;;;;17.51;67.58;101587.09;4989256;28;20035;-64
2022/07/29 07:11:09;;;;;;;21.02;11.90;;;;;;;17.51;67.79;101577.47;4988109;28;20088;-64
2022/07/29 07:13:34;;;;;;;21.63;11.95;;;;;;;17.52;67.53;101580.97;4987521;28;20026;-64
2022/07/29 07:16:01;;;;;;;23.90;11.70;;;;;;;17.52;66.53;101579.22;4986730;28;20030;-64
2022/07/29 07:18:26;;;;;;;20.00;12.20;;;;;;;17.52;67.68;101575.69;4983542;28;20226;-64
2022/07/29 07:20:51;;;;;;;23.02;12.55;;;;;;;17.52;68.00;101578.34;4985861;28;20064;-64
2022/07/29 07:23:16;;;;;;;20.42;12.27;;;;;;;17.53;67.86;101577.47;4986318;28;20049;-64
2022/07/29 07:25:42;;;;;;;21.83;12.75;;;;;;;17.54;66.86;101588.03;4989420;28;20054;-64
2022/07/29 07:28:07;;;;;;;24.08;12.77;;;;;;;17.54;67.01;101592.41;4986566;28;20402;-64
2022/07/29 07:30:32;;;;;;;18.55;12.65;;;;;;;17.54;67.27;101585.38;4991021;28;20066;-64
2022/07/29 07:32:59;;;;;;;19.77;12.68;;;;;;;17.53;68.14;101590.66;4990298;28;20084;-64
2022/07/29 07:35:26;;;;;;;19.92;12.30;;;;;;;17.55;67.30;101583.63;4975021;28;20089;-64
2022/07/29 07:37:51;;;;;;;24.13;13.13;;;;;;;17.58;68.27;101586.28;4990597;28;20018;-64
2022/07/29 07:40:16;;;;;;;22.75;13.43;;;;;;;17.59;67.56;101580.13;4991522;28;20061;-64
2022/07/29 07:42:42;;;;;;;24.67;13.93;;;;;;;17.64;69.01;101588.06;4989911;28;20034;-64
2022/07/29 07:45:11;;;;;;;22.67;13.32;;;;;;;17.69;68.28;101587.22;4992703;28;20027;-64
2022/07/29 07:47:37;;;;;;;28.58;14.77;;;;;;;17.75;67.12;101580.25;4993277;28;20026;-64
2022/07/29 07:50:06;;;;;;;24.50;14.63;;;;;;;17.80;67.89;101584.66;4993488;28;20113;-64
2022/07/29 07:52:31;;;;;;;20.90;13.00;;;;;;;17.88;67.55;101582.94;4988920;28;20508;-64
2022/07/29 07:54:57;;;;;;;22.77;13.88;;;;;;;17.97;68.61;101589.16;4988587;28;20030;-64
2022/07/29 07:57:22;;;;;;;24.05;13.20;;;;;;;18.02;67.74;101587.44;4993114;28;20057;-64
2022/07/29 07:59:47;;;;;;;25.35;13.93;;;;;;;18.09;67.39;101591.88;4993138;28;20041;-64
2022/07/29 08:02:13;;;;;;;24.52;13.98;;;;;;;18.16;66.34;101595.41;4992350;28;20547;-64
2022/07/29 08:04:40;;;;;;;25.67;14.02;;;;;;;18.21;65.92;101599.81;4990427;28;20034;-64
2022/07/29 08:07:06;;;;;;;26.38;14.18;;;;;;;18.25;65.99;101593.69;4992741;28;20031;-64
2022/07/29 08:09:31;;;;;;;23.42;13.68;;;;;;;18.32;66.03;101599.88;4991975;28;20080;-65
2022/07/29 08:11:58;;;;;;;28.95;14.02;;;;;;;18.38;64.96;101599.03;4975429;28;20113;-64
2022/07/29 08:14:24;;;;;;;22.98;13.88;;;;;;;18.44;64.98;101599.03;4992519;28;20513;-64
2022/07/29 08:16:49;;;;;;;23.83;12.30;;;;;;;18.51;65.08;101590.25;4991784;28;20766;-64
2022/07/29 08:19:14;;;;;;;26.00;12.95;;;;;;;18.59;65.26;101599.06;4990363;28;20057;-64
2022/07/29 08:21:40;;;;;;;25.40;13.38;;;;;;;18.68;65.71;101594.69;4990377;28;20030;-64
2022/07/29 08:26:49;;;;;;;29.15;14.57;;;;;;;18.85;65.28;101589.44;4990337;28;20509;-64
2022/07/29 08:29:16;;;;;;;28.90;15.48;;;;;;;18.89;63.89;101594.75;4990829;28;20026;-64
2022/07/29 08:31:41;;;;;;;28.25;14.73;;;;;;;18.96;64.96;101594.75;4987073;28;20454;-64
2022/07/29 08:34:07;;;;;;;26.00;14.15;;;;;;;19.01;64.87;101596.53;4984382;28;20556;-64
2022/07/29 08:36:33;;;;;;;25.45;15.48;;;;;;;19.09;63.40;101596.56;4988099;28;20022;-64
2022/07/29 08:38:59;;;;;;;26.75;15.57;;;;;;;19.18;63.68;101593.03;4985813;28;20031;-64
2022/07/29 08:41:25;;;;;;;23.63;13.98;;;;;;;19.27;64.79;101598.28;4979841;28;20051;-64
2022/07/29 08:43:52;;;;;;;24.30;13.65;;;;;;;19.39;64.94;101600.03;4989596;28;20492;-65
2022/07/29 08:46:18;;;;;;;26.33;14.55;;;;;;;19.44;63.79;101601.81;4989810;28;20065;-64
2022/07/29 08:48:44;;;;;;;26.15;13.98;;;;;;;19.54;64.94;101602.69;4989153;28;20035;-64
2022/07/29 08:51:14;;;;;;;27.80;14.70;;;;;;;19.68;65.27;101591.19;4990459;28;20092;-64
2022/07/29 08:53:42;;;;;;;24.88;14.90;;;;;;;19.79;63.71;101592.97;4989211;28;20490;-64
2022/07/29 08:56:12;;;;;;;27.20;14.82;;;;;;;19.91;63.86;101592.03;4987561;28;20030;-65
2022/07/29 08:58:42;;;;;;;26.33;13.35;;;;;;;19.97;64.23;101596.44;4989299;28;20486;-65
2022/07/29 09:01:08;;;;;;;;;;;;;;;20.09;63.31;101601.69;4989827;28;20469;-64
2022/07/29 09:03:36;;;;;;;24.45;12.93;;;;;;;20.18;62.21;101606.06;4989139;28;19917;-64
2022/07/29 09:06:02;;;;;;;23.60;13.52;;;;;;;20.26;60.71;101604.28;4989929;28;20022;-65
2022/07/29 09:08:28;;;;;;;24.67;12.52;;;;;;;20.30;61.29;101597.19;4989804;28;20026;-65
2022/07/29 09:10:55;;;;;;;20.90;11.90;;;;;;;20.40;62.54;101600.66;4989440;28;20037;-65
2022/07/29 09:13:21;;;;;;;19.77;11.05;;;;;;;20.47;61.63;101591.81;4984467;28;20026;-66
2022/07/29 09:15:46;;;;;;;15.68;9.50;;;;;;;20.62;62.59;101597.03;4991381;28;20092;-66
2022/07/29 09:18:12;;;;;;;19.95;11.32;;;;;;;20.69;60.08;101597.00;4972735;28;20038;-66
2022/07/29 09:23:21;;;;;;;20.83;10.73;;;;;;;20.91;59.31;101597.75;4990295;28;20112;-65
2022/07/29 09:25:47;;;;;;;13.77;9.85;;;;;;;20.98;58.42;101594.16;4989630;28;20429;-66
2022/07/29 09:28:14;;;;;;;18.88;11.65;;;;;;;21.10;59.71;101601.13;4990793;28;20031;-66
2022/07/29 09:30:58;;;;;;;18.20;10.15;;;;;;;21.18;60.56;101601.94;4985155;28;20073;-65
2022/07/29 09:33:34;;;;;;;15.25;9.80;;;;;;;21.32;61.39;101602.72;4970085;28;20010;-65
2022/07/29 09:36:07;;;;;;;11.75;8.13;;;;;;;21.55;61.90;101606.94;4982644;28;20096;-66
2022/07/29 09:38:33;;;;;;;15.23;8.60;;;;;;;21.59;58.95;101606.00;4980402;28;20018;-66
2022/07/29 09:41:01;;;;;;;12.45;7.80;;;;;;;21.70;59.90;101613.88;4983409;28;20494;-65
2022/07/29 09:43:26;;;;;;;11.40;7.22;;;;;;;21.84;60.89;101613.69;4988844;28;20026;-66
2022/07/29 09:45:52;;;;;;;13.55;8.63;;;;;;;21.88;56.34;101612.78;4982923;28;20093;-63
2022/07/29 09:48:20;;;;;;;12.55;7.82;;;;;;;21.94;56.63;101610.09;4982564;28;20018;-63
2022/07/29 09:50:49;;;;;;;11.10;7.50;;;;;;;22.04;58.65;101606.41;4986890;28;20034;-63
2022/07/29 09:53:37;;;;;;;10.52;7.20;;;;;;;22.14;58.00;101611.59;4991284;28;20390;-63
2022/07/29 09:56:03;;;;;;;11.10;7.13;;;;;;;22.22;56.72;101607.94;4979450;28;20027;-63
2022/07/29 09:58:29;;;;;;;9.07;6.40;;;;;;;22.30;55.71;101596.34;4989977;28;20085;-63
2022/07/29 10:00:55;;;;;;;10.70;7.22;;;;;;;22.36;56.74;101594.53;4987739;28;20026;-63
2022/07/29 10:03:21;;;;;;;9.93;7.00;;;;;;;22.44;54.63;101604.19;4989860;28;20105;-64
2022/07/29 10:06:05;;;;;;;8.73;6.05;;;;;;;22.52;56.76;101599.63;4990223;28;20065;-64
2022/07/29 10:08:31;;;;;;;7.28;5.65;;;;;;;22.60;56.39;101597.75;4990268;28;20109;-64
2022/07/29 10:11:17;;;;;;;8.80;6.03;;;;;;;22.72;55.04;101586.06;4989328;28;20109;-64
2022/07/29 10:13:44;;;;;;;7.68;5.63;;;;;;;22.79;54.69;101589.50;4988237;28;20417;-64
2022/07/29 10:16:11;;;;;;;8.02;4.97;;;;;;;22.85;54.13;101592.06;4987684;28;20390;-64
2022/07/29 10:18:41;;;;;;;7.93;5.47;;;;;;;22.91;53.96;101594.59;4989805;28;20036;-64
2022/07/29 10:21:07;;;;;;;8.43;5.30;;;;;;;23.05;55.10;101595.25;4988402;28;20077;-64
2022/07/29 10:23:34;;;;;;;7.47;5.10;;;;;;;23.20;54.86;101599.50;4983877;28;20482;-64
2022/07/29 10:25:59;;;;;;;7.60;5.78;;;;;;;23.29;53.35;101590.50;4989264;28;20042;-64
2022/07/29 10:28:25;;;;;;;9.35;6.30;;;;;;;23.36;50.99;101594.81;4987918;28;20569;-64
2022/07/29 10:30:52;;;;;;;8.68;5.63;;;;;;;23.41;50.48;101594.72;4990186;28;20482;-65
2022/07/29 10:33:29;;;;;;;7.72;5.57;;;;;;;23.51;51.04;101590.09;4987242;28;20030;-64
2022/07/29 10:36:32;;;;;;;8.60;4.90;;;;;;;23.59;52.77;101596.13;4981423;28;20022;-64
2022/07/29 10:39:17;;;;;;;7.97;4.78;;;;;;;23.72;52.86;101589.69;4964198;28;20069;-64
2022/07/29 10:42:22;;;;;;;7.03;5.40;;;;;;;23.76;51.63;101593.16;4989049;28;20043;-64
2022/07/29 10:44:48;;;;;;;7.32;5.47;;;;;;;23.76;51.38;101591.38;4990277;28;20030;-64
2022/07/29 10:47:20;;;;;;;7.82;5.80;;;;;;;23.75;49.99;101592.31;4989676;28;20401;-64
2022/07/29 10:50:04;;;;;;;7.97;5.10;;;;;;;23.72;51.06;101587.03;4988691;28;20444;-63
2022/07/29 10:52:52;;;;;;;8.32;4.50;;;;;;;23.81;52.76;101585.97;4981326;28;20023;-63
2022/07/29 10:55:42;;;;;;;9.10;5.10;;;;;;;23.87;52.02;101577.91;4984431;28;20015;-63
2022/07/29 10:58:25;;;;;;;7.28;5.20;;;;;;;23.91;50.92;101574.28;4989887;28;20510;-60
2022/07/29 11:00:53;;;;;;;6.03;4.57;;;;;;;23.99;51.43;101581.22;4993167;28;20030;-59
2022/07/29 11:03:47;;;;;;;5.80;4.40;;;;;;;24.08;50.67;101583.69;4993262;28;20038;-59
2022/07/29 11:06:13;;;;;;;9.23;4.82;;;;;;;24.25;52.28;101583.31;4975399;28;20032;-59
2022/07/29 11:08:39;;;;;;;6.95;4.40;;;;;;;24.33;48.50;101583.16;4994171;28;20033;-59
2022/07/29 11:11:19;;;;;;;6.90;4.18;;;;;;;24.48;51.26;101580.16;4987316;28;20018;-60
2022/07/29 11:13:51;;;;;;;8.15;4.10;;;;;;;24.62;51.42;101582.50;4990898;28;20037;-60
2022/07/29 11:16:18;;;;;;;9.40;4.90;;;;;;;24.67;46.75;101569.09;4991495;28;20022;-61
2022/07/29 11:19:12;;;;;;;6.53;4.68;;;;;;;24.77;49.31;101578.63;4990787;28;20088;-61
2022/07/29 11:21:40;;;;;;;6.47;4.07;;;;;;;24.77;48.21;101568.84;4988307;28;20098;-59
2022/07/29 11:24:17;;;;;;;5.70;4.60;;;;;;;24.95;48.41;101572.81;4969042;28;20034;-59
2022/07/29 11:26:42;;;;;;;6.47;3.70;;;;;;;25.00;47.93;101575.41;4988864;28;20038;-60
2022/07/29 11:29:21;;;;;;;5.88;4.85;;;;;;;25.10;47.62;101576.91;4992613;28;20106;-59
2022/07/29 11:31:51;;;;;;;11.18;4.68;;;;;;;25.09;45.50;101572.50;4992682;28;20041;-61
2022/07/29 11:34:35;;;;;;;5.15;4.43;;;;;;;25.16;48.55;101574.09;4993503;28;20027;-61